sensor_id;sensor_type;location;lat;lon;timestamp;temperature;humidity
10558;DHT22;5327;47.238;-2.304;2022-11-13T00:01:09;46.40;99.90
10558;DHT22;5327;47.238;-2.304;2022-11-13T00:03:35;46.20;99.90
10558;DHT22;5327;47.238;-2.304;2022-11-13T00:06:01;46.10;99.90
10558;DHT22;5327;47.238;-2.304;2022-11-13T00:08:27;46.00;99.90
10558;DHT22;5327;47.238;-2.304;2022-11-13T00:11:00;45.70;99.90
10558;DHT22;5327;47.238;-2.304;2022-11-13T00:13:26;45.70;99.90
10558;DHT22;5327;47.238;-2.304;2022-11-13T00:16:00;45.70;99.90
10558;DHT22;5327;47.238;-2.304;2022-11-13T00:18:27;45.90;99.90
10558;DHT22;5327;47.238;-2.304;2022-11-13T00:20:55;45.90;99.90
10558;DHT22;5327;47.238;-2.304;2022-11-13T00:23:21;45.70;99.90
10558;DHT22;5327;47.238;-2.304;2022-11-13T00:25:47;45.80;99.90
10558;DHT22;5327;47.238;-2.304;2022-11-13T00:28:12;45.90;99.90
10558;DHT22;5327;47.238;-2.304;2022-11-13T00:30:38;45.80;99.90
10558;DHT22;5327;47.238;-2.304;2022-11-13T00:33:04;46.00;99.90
10558;DHT22;5327;47.238;-2.304;2022-11-13T00:35:31;45.90;99.90
10558;DHT22;5327;47.238;-2.304;2022-11-13T00:37:57;46.00;99.90
10558;DHT22;5327;47.238;-2.304;2022-11-13T00:40:23;45.70;99.90
10558;DHT22;5327;47.238;-2.304;2022-11-13T00:42:48;46.00;99.90
10558;DHT22;5327;47.238;-2.304;2022-11-13T00:45:14;46.10;99.90
10558;DHT22;5327;47.238;-2.304;2022-11-13T00:47:40;46.10;99.90
10558;DHT22;5327;47.238;-2.304;2022-11-13T00:50:06;46.20;99.90
10558;DHT22;5327;47.238;-2.304;2022-11-13T00:52:31;46.30;99.90
10558;DHT22;5327;47.238;-2.304;2022-11-13T00:54:57;46.20;99.90
10558;DHT22;5327;47.238;-2.304;2022-11-13T00:57:22;46.10;99.90
10558;DHT22;5327;47.238;-2.304;2022-11-13T00:59:48;46.00;99.90
10558;DHT22;5327;47.238;-2.304;2022-11-13T01:02:14;46.10;99.90
10558;DHT22;5327;47.238;-2.304;2022-11-13T01:04:40;46.30;99.90
10558;DHT22;5327;47.238;-2.304;2022-11-13T01:07:06;46.10;99.90
10558;DHT22;5327;47.238;-2.304;2022-11-13T01:09:32;46.20;99.90
10558;DHT22;5327;47.238;-2.304;2022-11-13T01:11:58;45.90;99.90
10558;DHT22;5327;47.238;-2.304;2022-11-13T01:14:24;46.00;99.90
10558;DHT22;5327;47.238;-2.304;2022-11-13T01:16:50;46.00;99.90
10558;DHT22;5327;47.238;-2.304;2022-11-13T01:19:16;45.90;99.90
10558;DHT22;5327;47.238;-2.304;2022-11-13T01:21:42;46.30;99.90
10558;DHT22;5327;47.238;-2.304;2022-11-13T01:24:07;46.10;99.90
10558;DHT22;5327;47.238;-2.304;2022-11-13T01:26:33;46.00;99.90
10558;DHT22;5327;47.238;-2.304;2022-11-13T01:28:59;46.10;99.90
10558;DHT22;5327;47.238;-2.304;2022-11-13T01:31:28;45.80;99.90
10558;DHT22;5327;47.238;-2.304;2022-11-13T01:33:54;45.90;99.90
10558;DHT22;5327;47.238;-2.304;2022-11-13T01:36:22;45.80;99.90
10558;DHT22;5327;47.238;-2.304;2022-11-13T01:38:49;46.00;99.90
10558;DHT22;5327;47.238;-2.304;2022-11-13T01:41:27;46.10;99.90
10558;DHT22;5327;47.238;-2.304;2022-11-13T01:43:54;45.80;99.90
10558;DHT22;5327;47.238;-2.304;2022-11-13T01:46:41;45.80;99.90
10558;DHT22;5327;47.238;-2.304;2022-11-13T01:51:38;45.80;99.90
10558;DHT22;5327;47.238;-2.304;2022-11-13T01:54:06;45.80;99.90
10558;DHT22;5327;47.238;-2.304;2022-11-13T01:56:33;46.00;99.90
10558;DHT22;5327;47.238;-2.304;2022-11-13T01:59:09;46.00;99.90
10558;DHT22;5327;47.238;-2.304;2022-11-13T02:01:37;46.00;99.90
10558;DHT22;5327;47.238;-2.304;2022-11-13T02:04:03;45.80;99.90
10558;DHT22;5327;47.238;-2.304;2022-11-13T02:06:50;45.80;99.90
10558;DHT22;5327;47.238;-2.304;2022-11-13T02:09:19;45.70;99.90
10558;DHT22;5327;47.238;-2.304;2022-11-13T02:11:46;45.80;99.90
10558;DHT22;5327;47.238;-2.304;2022-11-13T02:14:12;45.80;99.90
10558;DHT22;5327;47.238;-2.304;2022-11-13T02:16:40;46.00;99.90
10558;DHT22;5327;47.238;-2.304;2022-11-13T02:19:13;45.60;99.90
10558;DHT22;5327;47.238;-2.304;2022-11-13T02:21:49;45.80;99.90
10558;DHT22;5327;47.238;-2.304;2022-11-13T02:24:31;45.70;99.90
10558;DHT22;5327;47.238;-2.304;2022-11-13T02:27:00;45.80;99.90
10558;DHT22;5327;47.238;-2.304;2022-11-13T02:29:27;45.80;99.90
10558;DHT22;5327;47.238;-2.304;2022-11-13T02:31:53;45.50;99.90
10558;DHT22;5327;47.238;-2.304;2022-11-13T02:34:18;45.60;99.90
10558;DHT22;5327;47.238;-2.304;2022-11-13T02:36:44;45.60;99.90
10558;DHT22;5327;47.238;-2.304;2022-11-13T02:39:11;45.70;99.90
10558;DHT22;5327;47.238;-2.304;2022-11-13T02:41:37;45.60;99.90
10558;DHT22;5327;47.238;-2.304;2022-11-13T02:44:05;45.70;99.90
10558;DHT22;5327;47.238;-2.304;2022-11-13T02:46:31;45.50;99.90
10558;DHT22;5327;47.238;-2.304;2022-11-13T02:48:57;45.50;99.90
10558;DHT22;5327;47.238;-2.304;2022-11-13T02:51:22;45.60;99.90
10558;DHT22;5327;47.238;-2.304;2022-11-13T02:53:48;45.80;99.90
10558;DHT22;5327;47.238;-2.304;2022-11-13T02:56:14;45.80;99.90
10558;DHT22;5327;47.238;-2.304;2022-11-13T02:58:40;45.80;99.90
10558;DHT22;5327;47.238;-2.304;2022-11-13T03:01:05;45.60;99.90
10558;DHT22;5327;47.238;-2.304;2022-11-13T03:03:31;45.40;99.90
10558;DHT22;5327;47.238;-2.304;2022-11-13T03:05:57;45.40;99.90
10558;DHT22;5327;47.238;-2.304;2022-11-13T03:08:23;45.40;99.90
10558;DHT22;5327;47.238;-2.304;2022-11-13T03:10:51;45.30;99.90
10558;DHT22;5327;47.238;-2.304;2022-11-13T03:13:17;45.20;99.90
10558;DHT22;5327;47.238;-2.304;2022-11-13T03:15:43;45.50;99.90
10558;DHT22;5327;47.238;-2.304;2022-11-13T03:18:08;45.40;99.90
10558;DHT22;5327;47.238;-2.304;2022-11-13T03:20:37;45.50;99.90
10558;DHT22;5327;47.238;-2.304;2022-11-13T03:23:04;45.30;99.90
10558;DHT22;5327;47.238;-2.304;2022-11-13T03:25:31;45.40;99.90
10558;DHT22;5327;47.238;-2.304;2022-11-13T03:27:57;45.30;99.90
10558;DHT22;5327;47.238;-2.304;2022-11-13T03:30:22;45.40;99.90
10558;DHT22;5327;47.238;-2.304;2022-11-13T03:32:55;45.20;99.90
10558;DHT22;5327;47.238;-2.304;2022-11-13T03:35:22;45.50;99.90
10558;DHT22;5327;47.238;-2.304;2022-11-13T03:37:49;45.40;99.90
10558;DHT22;5327;47.238;-2.304;2022-11-13T03:40:15;45.20;99.90
10558;DHT22;5327;47.238;-2.304;2022-11-13T03:42:40;45.20;99.90
10558;DHT22;5327;47.238;-2.304;2022-11-13T03:45:06;45.40;99.90
10558;DHT22;5327;47.238;-2.304;2022-11-13T03:47:32;45.30;99.90
10558;DHT22;5327;47.238;-2.304;2022-11-13T03:49:58;45.10;99.90
10558;DHT22;5327;47.238;-2.304;2022-11-13T03:52:23;45.50;99.90
10558;DHT22;5327;47.238;-2.304;2022-11-13T03:54:49;45.30;99.90
10558;DHT22;5327;47.238;-2.304;2022-11-13T03:57:15;45.70;99.90
10558;DHT22;5327;47.238;-2.304;2022-11-13T03:59:40;47.80;99.90
10558;DHT22;5327;47.238;-2.304;2022-11-13T04:02:06;45.70;99.90
10558;DHT22;5327;47.238;-2.304;2022-11-13T04:04:31;45.50;99.90
10558;DHT22;5327;47.238;-2.304;2022-11-13T04:06:57;45.80;99.90
10558;DHT22;5327;47.238;-2.304;2022-11-13T04:09:23;45.70;99.90
10558;DHT22;5327;47.238;-2.304;2022-11-13T04:11:48;45.70;99.90
10558;DHT22;5327;47.238;-2.304;2022-11-13T04:14:14;45.50;99.90
10558;DHT22;5327;47.238;-2.304;2022-11-13T04:16:40;45.40;99.90
10558;DHT22;5327;47.238;-2.304;2022-11-13T04:19:05;45.60;99.90
10558;DHT22;5327;47.238;-2.304;2022-11-13T04:21:31;45.40;99.90
10558;DHT22;5327;47.238;-2.304;2022-11-13T04:23:56;45.50;99.90
10558;DHT22;5327;47.238;-2.304;2022-11-13T04:26:22;45.40;99.90
10558;DHT22;5327;47.238;-2.304;2022-11-13T04:28:48;45.30;99.90
10558;DHT22;5327;47.238;-2.304;2022-11-13T04:31:13;44.50;99.90
10558;DHT22;5327;47.238;-2.304;2022-11-13T04:33:39;45.50;99.90
10558;DHT22;5327;47.238;-2.304;2022-11-13T04:36:05;45.30;99.90
10558;DHT22;5327;47.238;-2.304;2022-11-13T04:38:31;45.30;99.90
10558;DHT22;5327;47.238;-2.304;2022-11-13T04:40:56;45.40;99.90
10558;DHT22;5327;47.238;-2.304;2022-11-13T04:43:41;45.50;99.90
10558;DHT22;5327;47.238;-2.304;2022-11-13T04:46:06;45.50;99.90
10558;DHT22;5327;47.238;-2.304;2022-11-13T04:48:32;45.40;99.90
10558;DHT22;5327;47.238;-2.304;2022-11-13T04:50:58;45.30;99.90
10558;DHT22;5327;47.238;-2.304;2022-11-13T04:53:23;45.30;99.90
10558;DHT22;5327;47.238;-2.304;2022-11-13T04:55:51;45.40;99.90
10558;DHT22;5327;47.238;-2.304;2022-11-13T04:58:17;45.30;99.90
10558;DHT22;5327;47.238;-2.304;2022-11-13T05:00:43;45.30;99.90
10558;DHT22;5327;47.238;-2.304;2022-11-13T05:03:08;45.40;99.90
10558;DHT22;5327;47.238;-2.304;2022-11-13T05:05:34;45.60;99.90
10558;DHT22;5327;47.238;-2.304;2022-11-13T05:08:00;45.60;99.90
10558;DHT22;5327;47.238;-2.304;2022-11-13T05:10:25;45.30;99.90
10558;DHT22;5327;47.238;-2.304;2022-11-13T05:12:54;45.40;99.90
10558;DHT22;5327;47.238;-2.304;2022-11-13T05:15:20;45.50;99.90
10558;DHT22;5327;47.238;-2.304;2022-11-13T05:17:48;45.50;99.90
10558;DHT22;5327;47.238;-2.304;2022-11-13T05:20:13;45.60;99.90
10558;DHT22;5327;47.238;-2.304;2022-11-13T05:22:39;45.30;99.90
10558;DHT22;5327;47.238;-2.304;2022-11-13T05:25:05;45.40;99.90
10558;DHT22;5327;47.238;-2.304;2022-11-13T05:27:31;45.60;99.90
10558;DHT22;5327;47.238;-2.304;2022-11-13T05:29:56;45.40;99.90
10558;DHT22;5327;47.238;-2.304;2022-11-13T05:32:22;45.50;99.90
10558;DHT22;5327;47.238;-2.304;2022-11-13T05:34:47;45.60;99.90
10558;DHT22;5327;47.238;-2.304;2022-11-13T05:37:13;45.30;99.90
10558;DHT22;5327;47.238;-2.304;2022-11-13T05:39:39;45.30;99.90
10558;DHT22;5327;47.238;-2.304;2022-11-13T05:42:05;45.60;99.90
10558;DHT22;5327;47.238;-2.304;2022-11-13T05:44:30;45.60;99.90
10558;DHT22;5327;47.238;-2.304;2022-11-13T05:46:56;45.60;99.90
10558;DHT22;5327;47.238;-2.304;2022-11-13T05:49:21;45.60;99.90
10558;DHT22;5327;47.238;-2.304;2022-11-13T05:51:47;45.30;99.90
10558;DHT22;5327;47.238;-2.304;2022-11-13T05:54:13;45.40;99.90
10558;DHT22;5327;47.238;-2.304;2022-11-13T05:56:39;45.70;99.90
10558;DHT22;5327;47.238;-2.304;2022-11-13T05:59:05;45.50;99.90
10558;DHT22;5327;47.238;-2.304;2022-11-13T06:01:33;45.60;99.90
10558;DHT22;5327;47.238;-2.304;2022-11-13T06:04:00;45.60;99.90
10558;DHT22;5327;47.238;-2.304;2022-11-13T06:06:27;45.50;99.90
10558;DHT22;5327;47.238;-2.304;2022-11-13T06:08:54;45.60;99.90
10558;DHT22;5327;47.238;-2.304;2022-11-13T06:11:21;45.30;99.90
10558;DHT22;5327;47.238;-2.304;2022-11-13T06:13:48;45.30;99.90
10558;DHT22;5327;47.238;-2.304;2022-11-13T06:16:20;45.70;99.90
10558;DHT22;5327;47.238;-2.304;2022-11-13T06:18:47;45.40;99.90
10558;DHT22;5327;47.238;-2.304;2022-11-13T06:21:21;45.60;99.90
10558;DHT22;5327;47.238;-2.304;2022-11-13T06:23:47;45.50;99.90
10558;DHT22;5327;47.238;-2.304;2022-11-13T06:26:22;45.70;99.90
10558;DHT22;5327;47.238;-2.304;2022-11-13T06:28:48;45.40;99.90
10558;DHT22;5327;47.238;-2.304;2022-11-13T06:31:19;45.70;99.90
10558;DHT22;5327;47.238;-2.304;2022-11-13T06:33:45;45.50;99.90
10558;DHT22;5327;47.238;-2.304;2022-11-13T06:36:19;45.70;99.90
10558;DHT22;5327;47.238;-2.304;2022-11-13T06:38:46;45.70;99.90
10558;DHT22;5327;47.238;-2.304;2022-11-13T06:41:13;45.70;99.90
10558;DHT22;5327;47.238;-2.304;2022-11-13T06:43:39;45.30;99.90
10558;DHT22;5327;47.238;-2.304;2022-11-13T06:46:09;45.40;99.90
10558;DHT22;5327;47.238;-2.304;2022-11-13T06:48:35;45.60;99.90
10558;DHT22;5327;47.238;-2.304;2022-11-13T06:51:03;45.50;99.90
10558;DHT22;5327;47.238;-2.304;2022-11-13T06:53:30;45.70;99.90
10558;DHT22;5327;47.238;-2.304;2022-11-13T06:55:56;45.30;99.90
10558;DHT22;5327;47.238;-2.304;2022-11-13T06:58:22;45.50;99.90
10558;DHT22;5327;47.238;-2.304;2022-11-13T07:00:48;45.40;99.90
10558;DHT22;5327;47.238;-2.304;2022-11-13T07:03:16;45.30;99.90
10558;DHT22;5327;47.238;-2.304;2022-11-13T07:05:42;45.60;99.90
10558;DHT22;5327;47.238;-2.304;2022-11-13T07:08:08;45.40;99.90
10558;DHT22;5327;47.238;-2.304;2022-11-13T07:10:34;45.70;99.90
10558;DHT22;5327;47.238;-2.304;2022-11-13T07:12:59;45.50;99.90
10558;DHT22;5327;47.238;-2.304;2022-11-13T07:15:25;45.50;99.90
10558;DHT22;5327;47.238;-2.304;2022-11-13T07:17:51;45.60;99.90
10558;DHT22;5327;47.238;-2.304;2022-11-13T07:20:17;45.90;99.90
10558;DHT22;5327;47.238;-2.304;2022-11-13T07:22:43;45.80;99.90
10558;DHT22;5327;47.238;-2.304;2022-11-13T07:25:08;45.60;99.90
10558;DHT22;5327;47.238;-2.304;2022-11-13T07:27:34;45.80;99.90
10558;DHT22;5327;47.238;-2.304;2022-11-13T07:30:00;45.90;99.90
10558;DHT22;5327;47.238;-2.304;2022-11-13T07:32:25;45.90;99.90
10558;DHT22;5327;47.238;-2.304;2022-11-13T07:34:51;45.60;99.90
10558;DHT22;5327;47.238;-2.304;2022-11-13T07:37:17;45.90;99.90
10558;DHT22;5327;47.238;-2.304;2022-11-13T07:39:43;45.70;99.90
10558;DHT22;5327;47.238;-2.304;2022-11-13T07:42:09;45.60;99.90
10558;DHT22;5327;47.238;-2.304;2022-11-13T07:44:34;45.70;99.90
10558;DHT22;5327;47.238;-2.304;2022-11-13T07:47:00;45.50;99.90
10558;DHT22;5327;47.238;-2.304;2022-11-13T07:49:26;45.60;99.90
10558;DHT22;5327;47.238;-2.304;2022-11-13T07:51:52;45.80;99.90
10558;DHT22;5327;47.238;-2.304;2022-11-13T07:54:17;45.70;99.90
10558;DHT22;5327;47.238;-2.304;2022-11-13T07:56:43;45.60;99.90
10558;DHT22;5327;47.238;-2.304;2022-11-13T07:59:09;45.60;99.90
10558;DHT22;5327;47.238;-2.304;2022-11-13T08:01:35;45.90;99.90
10558;DHT22;5327;47.238;-2.304;2022-11-13T08:04:02;45.90;99.90
10558;DHT22;5327;47.238;-2.304;2022-11-13T08:06:28;45.50;99.90
10558;DHT22;5327;47.238;-2.304;2022-11-13T08:08:54;45.50;99.90
10558;DHT22;5327;47.238;-2.304;2022-11-13T08:11:20;45.50;99.90
10558;DHT22;5327;47.238;-2.304;2022-11-13T08:13:46;45.40;99.90
10558;DHT22;5327;47.238;-2.304;2022-11-13T08:16:12;45.30;99.90
10558;DHT22;5327;47.238;-2.304;2022-11-13T08:18:39;45.00;99.90
10558;DHT22;5327;47.238;-2.304;2022-11-13T08:21:05;45.20;99.90
10558;DHT22;5327;47.238;-2.304;2022-11-13T08:23:31;45.50;99.90
10558;DHT22;5327;47.238;-2.304;2022-11-13T08:25:56;45.50;99.90
10558;DHT22;5327;47.238;-2.304;2022-11-13T08:28:25;45.30;99.90
10558;DHT22;5327;47.238;-2.304;2022-11-13T08:30:51;45.40;99.90
10558;DHT22;5327;47.238;-2.304;2022-11-13T08:33:16;45.30;99.90
10558;DHT22;5327;47.238;-2.304;2022-11-13T08:35:57;45.80;99.90
10558;DHT22;5327;47.238;-2.304;2022-11-13T08:38:23;45.70;99.90
10558;DHT22;5327;47.238;-2.304;2022-11-13T08:40:59;45.40;99.90
10558;DHT22;5327;47.238;-2.304;2022-11-13T08:43:25;45.30;99.90
10558;DHT22;5327;47.238;-2.304;2022-11-13T08:45:55;45.50;99.90
10558;DHT22;5327;47.238;-2.304;2022-11-13T08:48:22;45.60;99.90
10558;DHT22;5327;47.238;-2.304;2022-11-13T08:50:53;45.60;99.90
10558;DHT22;5327;47.238;-2.304;2022-11-13T08:53:20;46.10;99.90
10558;DHT22;5327;47.238;-2.304;2022-11-13T08:58:12;45.60;99.90
10558;DHT22;5327;47.238;-2.304;2022-11-13T09:00:37;45.60;99.90
10558;DHT22;5327;47.238;-2.304;2022-11-13T09:03:05;45.70;99.90
10558;DHT22;5327;47.238;-2.304;2022-11-13T09:05:31;45.90;99.90
10558;DHT22;5327;47.238;-2.304;2022-11-13T09:07:59;45.80;99.90
10558;DHT22;5327;47.238;-2.304;2022-11-13T09:10:26;45.70;99.90
10558;DHT22;5327;47.238;-2.304;2022-11-13T09:13:00;45.80;99.90
10558;DHT22;5327;47.238;-2.304;2022-11-13T09:15:27;45.90;99.90
10558;DHT22;5327;47.238;-2.304;2022-11-13T09:18:00;46.20;99.90
10558;DHT22;5327;47.238;-2.304;2022-11-13T09:20:27;46.10;99.90
10558;DHT22;5327;47.238;-2.304;2022-11-13T09:23:00;46.30;99.90
10558;DHT22;5327;47.238;-2.304;2022-11-13T09:25:28;46.70;99.90
10558;DHT22;5327;47.238;-2.304;2022-11-13T09:27:55;47.60;99.90
10558;DHT22;5327;47.238;-2.304;2022-11-13T09:30:21;48.10;99.90
10558;DHT22;5327;47.238;-2.304;2022-11-13T09:32:47;47.40;99.90
10558;DHT22;5327;47.238;-2.304;2022-11-13T09:35:13;47.10;99.90
10558;DHT22;5327;47.238;-2.304;2022-11-13T09:37:38;46.70;99.90
10558;DHT22;5327;47.238;-2.304;2022-11-13T09:40:05;46.70;99.90
10558;DHT22;5327;47.238;-2.304;2022-11-13T09:42:33;46.50;99.90
10558;DHT22;5327;47.238;-2.304;2022-11-13T09:45:05;46.60;99.90
10558;DHT22;5327;47.238;-2.304;2022-11-13T09:47:40;46.50;99.90
10558;DHT22;5327;47.238;-2.304;2022-11-13T09:52:38;46.40;99.90
10558;DHT22;5327;47.238;-2.304;2022-11-13T09:55:04;46.40;99.90
10558;DHT22;5327;47.238;-2.304;2022-11-13T09:57:33;46.40;99.90
10558;DHT22;5327;47.238;-2.304;2022-11-13T10:00:13;46.30;99.90
10558;DHT22;5327;47.238;-2.304;2022-11-13T10:08:27;47.20;99.90
10558;DHT22;5327;47.238;-2.304;2022-11-13T10:11:11;47.20;99.90
10558;DHT22;5327;47.238;-2.304;2022-11-13T10:13:45;47.10;99.90
10558;DHT22;5327;47.238;-2.304;2022-11-13T10:18:48;47.30;99.90
10558;DHT22;5327;47.238;-2.304;2022-11-13T10:21:32;47.80;99.90
10558;DHT22;5327;47.238;-2.304;2022-11-13T10:24:04;47.50;99.90
10558;DHT22;5327;47.238;-2.304;2022-11-13T10:26:33;47.60;99.90
10558;DHT22;5327;47.238;-2.304;2022-11-13T10:29:07;47.70;99.90
10558;DHT22;5327;47.238;-2.304;2022-11-13T10:32:17;48.00;99.90
10558;DHT22;5327;47.238;-2.304;2022-11-13T10:34:50;48.20;99.90
10558;DHT22;5327;47.238;-2.304;2022-11-13T10:37:33;50.10;99.90
10558;DHT22;5327;47.238;-2.304;2022-11-13T10:40:04;52.30;99.90
10558;DHT22;5327;47.238;-2.304;2022-11-13T10:42:38;52.70;99.90
10558;DHT22;5327;47.238;-2.304;2022-11-13T10:45:14;57.20;99.90
10558;DHT22;5327;47.238;-2.304;2022-11-13T10:47:58;60.40;99.90
10558;DHT22;5327;47.238;-2.304;2022-11-13T10:50:27;62.40;1.00
10558;DHT22;5327;47.238;-2.304;2022-11-13T10:52:54;63.30;99.90
10558;DHT22;5327;47.238;-2.304;2022-11-13T10:55:39;64.20;99.90
10558;DHT22;5327;47.238;-2.304;2022-11-13T10:58:17;64.50;99.90
10558;DHT22;5327;47.238;-2.304;2022-11-13T11:00:44;65.40;99.90
10558;DHT22;5327;47.238;-2.304;2022-11-13T11:03:21;65.70;99.90
10558;DHT22;5327;47.238;-2.304;2022-11-13T11:06:01;66.10;99.90
10558;DHT22;5327;47.238;-2.304;2022-11-13T11:08:30;65.70;99.90
10558;DHT22;5327;47.238;-2.304;2022-11-13T11:13:47;57.00;90.00
10558;DHT22;5327;47.238;-2.304;2022-11-13T11:16:21;53.50;99.90
10558;DHT22;5327;47.238;-2.304;2022-11-13T11:18:56;51.20;99.90
10558;DHT22;5327;47.238;-2.304;2022-11-13T11:21:33;49.50;1.00
10558;DHT22;5327;47.238;-2.304;2022-11-13T11:24:13;48.90;99.90
10558;DHT22;5327;47.238;-2.304;2022-11-13T11:26:44;48.40;99.90
10558;DHT22;5327;47.238;-2.304;2022-11-13T11:31:55;48.00;1.00
10558;DHT22;5327;47.238;-2.304;2022-11-13T11:34:39;48.00;99.90
10558;DHT22;5327;47.238;-2.304;2022-11-13T11:37:18;47.80;99.90
10558;DHT22;5327;47.238;-2.304;2022-11-13T11:39:47;47.70;99.90
10558;DHT22;5327;47.238;-2.304;2022-11-13T11:47:35;47.60;99.90
10558;DHT22;5327;47.238;-2.304;2022-11-13T11:50:01;47.60;99.90
10558;DHT22;5327;47.238;-2.304;2022-11-13T11:58:16;47.60;99.90
10558;DHT22;5327;47.238;-2.304;2022-11-13T12:00:50;47.70;99.90
10558;DHT22;5327;47.238;-2.304;2022-11-13T12:03:32;47.70;99.90
10558;DHT22;5327;47.238;-2.304;2022-11-13T12:09:25;47.60;99.90
10558;DHT22;5327;47.238;-2.304;2022-11-13T12:20:21;47.70;99.90
10558;DHT22;5327;47.238;-2.304;2022-11-13T12:25:45;47.70;99.90
10558;DHT22;5327;47.238;-2.304;2022-11-13T12:36:13;47.80;99.90
10558;DHT22;5327;47.238;-2.304;2022-11-13T12:41:51;47.60;99.90
10558;DHT22;5327;47.238;-2.304;2022-11-13T12:44:26;47.60;99.90
10558;DHT22;5327;47.238;-2.304;2022-11-13T12:46:56;47.50;99.90
10558;DHT22;5327;47.238;-2.304;2022-11-13T12:49:33;47.60;99.90
10558;DHT22;5327;47.238;-2.304;2022-11-13T12:54:34;47.70;99.90
10558;DHT22;5327;47.238;-2.304;2022-11-13T12:57:19;47.60;99.90
10558;DHT22;5327;47.238;-2.304;2022-11-13T12:59:57;47.60;99.90
10558;DHT22;5327;47.238;-2.304;2022-11-13T13:02:48;47.60;99.90
10558;DHT22;5327;47.238;-2.304;2022-11-13T13:05:24;47.50;99.90
10558;DHT22;5327;47.238;-2.304;2022-11-13T13:10:40;47.70;99.90
10558;DHT22;5327;47.238;-2.304;2022-11-13T13:13:26;47.60;99.90
10558;DHT22;5327;47.238;-2.304;2022-11-13T13:15:56;47.60;99.90
10558;DHT22;5327;47.238;-2.304;2022-11-13T13:18:24;47.60;99.90
10558;DHT22;5327;47.238;-2.304;2022-11-13T13:23:30;47.70;99.90
10558;DHT22;5327;47.238;-2.304;2022-11-13T13:28:43;47.60;99.90
10558;DHT22;5327;47.238;-2.304;2022-11-13T13:45:20;47.50;99.90
10558;DHT22;5327;47.238;-2.304;2022-11-13T13:47:49;47.60;99.90
10558;DHT22;5327;47.238;-2.304;2022-11-13T13:50:24;47.60;99.90
10558;DHT22;5327;47.238;-2.304;2022-11-13T13:52:52;47.80;99.90
10558;DHT22;5327;47.238;-2.304;2022-11-13T13:55:42;47.50;99.90
10558;DHT22;5327;47.238;-2.304;2022-11-13T13:58:13;47.50;99.90
10558;DHT22;5327;47.238;-2.304;2022-11-13T17:06:04;46.80;99.90
10558;DHT22;5327;47.238;-2.304;2022-11-13T17:08:30;47.00;99.90
10558;DHT22;5327;47.238;-2.304;2022-11-13T17:10:56;47.10;99.90
10558;DHT22;5327;47.238;-2.304;2022-11-13T17:13:22;47.30;99.90
10558;DHT22;5327;47.238;-2.304;2022-11-13T17:15:48;47.20;99.90
10558;DHT22;5327;47.238;-2.304;2022-11-13T17:18:13;47.10;99.90
10558;DHT22;5327;47.238;-2.304;2022-11-13T17:20:40;47.40;99.90
10558;DHT22;5327;47.238;-2.304;2022-11-13T17:23:05;47.30;99.90
10558;DHT22;5327;47.238;-2.304;2022-11-13T17:25:31;47.10;99.90
10558;DHT22;5327;47.238;-2.304;2022-11-13T17:27:56;47.30;99.90
10558;DHT22;5327;47.238;-2.304;2022-11-13T17:30:22;47.00;99.90
10558;DHT22;5327;47.238;-2.304;2022-11-13T17:32:48;47.30;99.90
10558;DHT22;5327;47.238;-2.304;2022-11-13T17:35:14;47.30;99.90
10558;DHT22;5327;47.238;-2.304;2022-11-13T17:37:39;47.10;99.90
10558;DHT22;5327;47.238;-2.304;2022-11-13T17:40:06;47.30;99.90
10558;DHT22;5327;47.238;-2.304;2022-11-13T17:42:32;47.30;99.90
10558;DHT22;5327;47.238;-2.304;2022-11-13T17:44:58;47.30;99.90
10558;DHT22;5327;47.238;-2.304;2022-11-13T17:47:23;47.20;99.90
10558;DHT22;5327;47.238;-2.304;2022-11-13T17:49:49;47.00;99.90
10558;DHT22;5327;47.238;-2.304;2022-11-13T17:52:15;47.30;99.90
10558;DHT22;5327;47.238;-2.304;2022-11-13T17:54:40;47.20;99.90
10558;DHT22;5327;47.238;-2.304;2022-11-13T17:57:06;47.10;99.90
10558;DHT22;5327;47.238;-2.304;2022-11-13T17:59:34;47.30;99.90
10558;DHT22;5327;47.238;-2.304;2022-11-13T18:02:00;47.20;99.90
10558;DHT22;5327;47.238;-2.304;2022-11-13T18:04:25;47.10;99.90
10558;DHT22;5327;47.238;-2.304;2022-11-13T18:06:51;47.00;99.90
10558;DHT22;5327;47.238;-2.304;2022-11-13T18:09:17;47.20;99.90
10558;DHT22;5327;47.238;-2.304;2022-11-13T18:11:42;47.20;99.90
10558;DHT22;5327;47.238;-2.304;2022-11-13T18:14:08;47.10;99.90
10558;DHT22;5327;47.238;-2.304;2022-11-13T18:16:34;47.00;99.90
10558;DHT22;5327;47.238;-2.304;2022-11-13T18:19:00;46.90;99.90
10558;DHT22;5327;47.238;-2.304;2022-11-13T18:21:30;47.00;99.90
10558;DHT22;5327;47.238;-2.304;2022-11-13T18:24:12;46.90;99.90
10558;DHT22;5327;47.238;-2.304;2022-11-13T18:26:38;47.10;99.90
10558;DHT22;5327;47.238;-2.304;2022-11-13T18:29:04;47.00;99.90
10558;DHT22;5327;47.238;-2.304;2022-11-13T18:31:30;47.00;99.90
10558;DHT22;5327;47.238;-2.304;2022-11-13T18:33:59;46.80;99.90
10558;DHT22;5327;47.238;-2.304;2022-11-13T18:36:27;46.80;99.90
10558;DHT22;5327;47.238;-2.304;2022-11-13T18:38:53;47.00;99.90
10558;DHT22;5327;47.238;-2.304;2022-11-13T18:41:22;46.70;99.90
10558;DHT22;5327;47.238;-2.304;2022-11-13T18:43:49;46.70;99.90
10558;DHT22;5327;47.238;-2.304;2022-11-13T18:46:20;47.00;99.90
10558;DHT22;5327;47.238;-2.304;2022-11-13T18:48:46;46.60;99.90
10558;DHT22;5327;47.238;-2.304;2022-11-13T18:51:21;46.80;99.90
10558;DHT22;5327;47.238;-2.304;2022-11-13T18:53:48;46.80;99.90
10558;DHT22;5327;47.238;-2.304;2022-11-13T18:56:23;46.80;99.90
10558;DHT22;5327;47.238;-2.304;2022-11-13T18:58:50;46.70;99.90
10558;DHT22;5327;47.238;-2.304;2022-11-13T19:01:19;46.70;99.90
10558;DHT22;5327;47.238;-2.304;2022-11-13T19:03:45;46.80;99.90
10558;DHT22;5327;47.238;-2.304;2022-11-13T19:06:13;47.00;99.90
10558;DHT22;5327;47.238;-2.304;2022-11-13T19:08:40;47.00;99.90
10558;DHT22;5327;47.238;-2.304;2022-11-13T19:11:09;46.60;99.90
10558;DHT22;5327;47.238;-2.304;2022-11-13T19:13:38;46.70;99.90
10558;DHT22;5327;47.238;-2.304;2022-11-13T19:16:12;46.80;99.90
10558;DHT22;5327;47.238;-2.304;2022-11-13T19:18:39;46.90;99.90
10558;DHT22;5327;47.238;-2.304;2022-11-13T19:21:07;46.50;99.90
10558;DHT22;5327;47.238;-2.304;2022-11-13T19:23:33;46.70;99.90
10558;DHT22;5327;47.238;-2.304;2022-11-13T19:25:59;46.40;99.90
10558;DHT22;5327;47.238;-2.304;2022-11-13T19:28:25;46.70;99.90
10558;DHT22;5327;47.238;-2.304;2022-11-13T19:30:51;46.70;99.90
10558;DHT22;5327;47.238;-2.304;2022-11-13T19:33:23;46.60;99.90
10558;DHT22;5327;47.238;-2.304;2022-11-13T19:35:53;46.50;99.90
10558;DHT22;5327;47.238;-2.304;2022-11-13T19:38:20;46.50;99.90
10558;DHT22;5327;47.238;-2.304;2022-11-13T19:40:50;46.50;99.90
10558;DHT22;5327;47.238;-2.304;2022-11-13T19:43:16;46.50;99.90
10558;DHT22;5327;47.238;-2.304;2022-11-13T19:45:42;46.70;99.90
10558;DHT22;5327;47.238;-2.304;2022-11-13T19:48:11;46.90;99.90
10558;DHT22;5327;47.238;-2.304;2022-11-13T19:50:38;46.80;99.90
10558;DHT22;5327;47.238;-2.304;2022-11-13T19:53:04;46.70;99.90
10558;DHT22;5327;47.238;-2.304;2022-11-13T19:55:29;46.60;99.90
10558;DHT22;5327;47.238;-2.304;2022-11-13T19:57:56;46.80;99.90
10558;DHT22;5327;47.238;-2.304;2022-11-13T20:00:21;46.60;99.90
10558;DHT22;5327;47.238;-2.304;2022-11-13T20:02:47;46.60;99.90
10558;DHT22;5327;47.238;-2.304;2022-11-13T20:05:13;46.50;99.90